createdAt,value
2019-05-03T00:00:33.252Z,97245.53
2019-05-03T00:01:43.877Z,97250.37
2019-05-03T00:03:02.042Z,97239.72
2019-05-03T00:04:07.931Z,97246.04
2019-05-03T00:05:29.503Z,97246.04
2019-05-03T00:06:32.307Z,97247.05
2019-05-03T00:07:35.134Z,97247.45
2019-05-03T00:08:37.933Z,97251.45
2019-05-03T00:09:42.630Z,97252.27
2019-05-03T00:10:47.182Z,97244.97
2019-05-03T00:11:49.999Z,97254.46
2019-05-03T00:12:53.283Z,97255.56
2019-05-03T00:13:57.185Z,97255.96
2019-05-03T00:15:06.039Z,97255.96
2019-05-03T00:16:15.014Z,97259.15
2019-05-03T00:17:17.891Z,97256.87
2019-05-03T00:18:22.100Z,97266.75
2019-05-03T00:19:25.394Z,97258.67
2019-05-03T00:20:28.362Z,97259.38
2019-05-03T00:21:32.690Z,97259.20
2019-05-03T00:22:36.007Z,97254.30
2019-05-03T00:23:38.830Z,97265.23
2019-05-03T00:24:42.682Z,97255.96
2019-05-03T00:25:45.719Z,97252.38
2019-05-03T00:26:48.950Z,97256.20
2019-05-03T00:27:55.252Z,97259.88
2019-05-03T00:28:58.024Z,97255.72
2019-05-03T00:30:02.667Z,97254.41
2019-05-03T00:31:05.297Z,97259.98
2019-05-03T00:32:12.325Z,97259.98
2019-05-03T00:33:14.931Z,97257.74
2019-05-03T00:34:24.283Z,97263.27
2019-05-03T00:35:49.139Z,97259.00
2019-05-03T00:36:54.698Z,97259.58
2019-05-03T00:37:58.998Z,97256.48
2019-05-03T00:39:14.604Z,97256.73
2019-05-03T00:40:29.761Z,97261.05
2019-05-03T00:41:32.632Z,97253.39
2019-05-03T00:42:35.894Z,97249.66
2019-05-03T00:43:38.776Z,97253.78
2019-05-03T00:44:42.187Z,97253.11
2019-05-03T00:45:45.059Z,97253.11
2019-05-03T00:46:48.709Z,97254.17
2019-05-03T00:47:52.727Z,97252.08
2019-05-03T00:48:56.162Z,97252.08
2019-05-03T00:49:59.135Z,97256.00
2019-05-03T00:51:06.204Z,97255.37
2019-05-03T00:52:08.558Z,97255.58
2019-05-03T00:53:11.946Z,97252.61
2019-05-03T00:54:15.011Z,97256.92
2019-05-03T00:55:19.306Z,97256.53
2019-05-03T00:56:22.182Z,97258.48
2019-05-03T00:57:25.211Z,97258.48
2019-05-03T00:58:28.101Z,97255.42
2019-05-03T00:59:32.657Z,97256.30
2019-05-03T01:00:35.614Z,97253.82
2019-05-03T01:01:38.442Z,97258.22
2019-05-03T01:02:42.319Z,97258.23
2019-05-03T01:03:45.295Z,97258.23
2019-05-03T01:04:48.107Z,97252.86
2019-05-03T01:05:52.756Z,97258.61
2019-05-03T01:06:55.697Z,97256.34
2019-05-03T01:07:58.595Z,97261.47
2019-05-03T01:09:02.652Z,97260.21
2019-05-03T01:10:06.392Z,97265.10
2019-05-03T01:11:09.253Z,97265.63
2019-05-03T01:12:12.681Z,97264.66
2019-05-03T01:13:15.905Z,97267.91
2019-05-03T01:14:19.075Z,97260.84
2019-05-03T01:15:42.338Z,97263.10
2019-05-03T01:16:46.024Z,97263.10
2019-05-03T01:17:49.530Z,97262.34
2019-05-03T01:18:52.680Z,97265.00
2019-05-03T01:19:55.762Z,97256.42
2019-05-03T01:20:58.635Z,97254.83
2019-05-03T01:22:01.980Z,97262.00
2019-05-03T01:23:04.895Z,97264.18
2019-05-03T01:24:07.681Z,97256.53
2019-05-03T01:25:12.054Z,97263.92
2019-05-03T01:26:15.282Z,97256.42
2019-05-03T01:27:18.083Z,97257.34
2019-05-03T01:28:23.731Z,97259.19
2019-05-03T01:29:26.555Z,97259.19
2019-05-03T01:30:29.379Z,97257.97
2019-05-03T01:31:32.270Z,97261.70
2019-05-03T01:32:35.383Z,97261.53
2019-05-03T01:33:38.178Z,97260.07
2019-05-03T01:34:42.955Z,97262.14
2019-05-03T01:35:48.387Z,97262.14
2019-05-03T01:36:51.911Z,97252.64
2019-05-03T01:37:55.332Z,97252.64
2019-05-03T01:38:58.407Z,97264.30
2019-05-03T01:40:02.378Z,97263.25
2019-05-03T01:41:08.475Z,97263.78
2019-05-03T01:42:14.853Z,97267.08
2019-05-03T01:43:17.677Z,97267.28
2019-05-03T01:44:21.992Z,97267.28
2019-05-03T01:45:24.939Z,97274.67
2019-05-03T01:46:27.758Z,97268.47
2019-05-03T01:47:38.312Z,97276.12
2019-05-03T01:48:54.323Z,97283.48
2019-05-03T01:50:06.980Z,97275.30
2019-05-03T01:51:28.507Z,97275.30
2019-05-03T01:52:35.071Z,97281.59
2019-05-03T01:53:38.091Z,97282.23
2019-05-03T01:54:42.694Z,97286.73
2019-05-03T01:55:54.882Z,97286.73
2019-05-03T01:56:59.198Z,97287.50
2019-05-03T01:58:02.193Z,97283.53
2019-05-03T01:59:04.981Z,97287.95
2019-05-03T02:00:09.063Z,97287.95
2019-05-03T02:01:33.424Z,97285.61
2019-05-03T02:02:52.444Z,97291.86
2019-05-03T02:04:06.778Z,97292.73
2019-05-03T02:05:32.061Z,97288.23
2019-05-03T02:06:37.207Z,97296.80
2019-05-03T02:07:39.986Z,97290.85
2019-05-03T02:08:42.854Z,97293.95
2019-05-03T02:09:45.900Z,97293.23
2019-05-03T02:10:48.683Z,97293.13
2019-05-03T02:11:52.589Z,97297.58
2019-05-03T02:12:55.431Z,97294.23
2019-05-03T02:13:58.213Z,97294.23
2019-05-03T02:15:02.475Z,97294.13
2019-05-03T02:16:05.716Z,97284.94
2019-05-03T02:17:08.557Z,97290.17
2019-05-03T02:18:14.880Z,97290.17
2019-05-03T02:19:15.863Z,97291.66
2019-05-03T02:20:18.708Z,97291.66
2019-05-03T02:21:21.846Z,97294.91
2019-05-03T02:22:25.054Z,97285.99
2019-05-03T02:23:28.337Z,97297.38
2019-05-03T02:24:32.738Z,97297.38
2019-05-03T02:25:35.768Z,97296.74
2019-05-03T02:26:39.096Z,97295.25
2019-05-03T02:27:42.460Z,97295.25
2019-05-03T02:28:49.578Z,97296.27
2019-05-03T02:29:53.582Z,97298.65
2019-05-03T02:30:56.373Z,97290.08
2019-05-03T02:32:08.260Z,97290.08
2019-05-03T02:33:13.444Z,97298.11
2019-05-03T02:34:19.331Z,97295.92
2019-05-03T02:35:22.833Z,97297.67
2019-05-03T02:36:25.757Z,97296.89
2019-05-03T02:37:28.607Z,97293.54
2019-05-03T02:38:33.819Z,97298.67
2019-05-03T02:39:36.311Z,97303.72
2019-05-03T02:40:39.102Z,97304.69
2019-05-03T02:41:45.239Z,97294.04
2019-05-03T02:43:05.529Z,97298.58
2019-05-03T02:44:08.521Z,97295.91
2019-05-03T02:45:16.264Z,97298.44
2019-05-03T02:46:27.826Z,97303.62
2019-05-03T02:47:55.412Z,97302.69
2019-05-03T02:49:06.442Z,97307.06
2019-05-03T02:50:16.707Z,97302.17
2019-05-03T02:51:19.760Z,97303.09
2019-05-03T02:52:38.436Z,97299.03
2019-05-03T02:53:41.273Z,97299.03
2019-05-03T02:54:46.422Z,97297.28
2019-05-03T02:55:48.742Z,97297.28
2019-05-03T02:56:51.990Z,97297.47
2019-05-03T02:57:56.288Z,97299.41
2019-05-03T02:58:59.684Z,97299.41
2019-05-03T03:00:04.904Z,97292.33
2019-05-03T03:01:07.024Z,97294.51
2019-05-03T03:02:09.929Z,97292.58
2019-05-03T03:03:12.729Z,97293.58
2019-05-03T03:04:16.097Z,97296.61
2019-05-03T03:05:19.583Z,97296.61
2019-05-03T03:06:22.384Z,97298.81
2019-05-03T03:07:25.815Z,97298.81
2019-05-03T03:08:32.765Z,97300.31
2019-05-03T03:09:35.998Z,97299.33
2019-05-03T03:10:38.448Z,97296.77
2019-05-03T03:11:41.589Z,97295.99
2019-05-03T03:12:46.508Z,97298.61
2019-05-03T03:13:48.922Z,97298.88
2019-05-03T03:14:51.877Z,97301.59
2019-05-03T03:15:55.313Z,97301.59
2019-05-03T03:16:58.897Z,97298.52
2019-05-03T03:18:02.092Z,97300.53
2019-05-03T03:19:06.677Z,97297.86
2019-05-03T03:20:09.344Z,97295.69
2019-05-03T03:21:16.070Z,97296.17
2019-05-03T03:22:19.234Z,97296.17
2019-05-03T03:23:22.106Z,97290.73
2019-05-03T03:24:25.904Z,97298.64
2019-05-03T03:25:30.664Z,97298.64
2019-05-03T03:26:39.217Z,97300.35
2019-05-03T03:27:38.366Z,97300.35
2019-05-03T03:28:41.247Z,97299.78
2019-05-03T03:29:45.893Z,97302.67
2019-05-03T03:30:49.020Z,97300.63
2019-05-03T03:31:51.957Z,97304.02
2019-05-03T03:32:57.822Z,97304.02
2019-05-03T03:33:59.842Z,97306.09
2019-05-03T03:35:09.271Z,97304.33
2019-05-03T03:36:31.487Z,97302.55
2019-05-03T03:37:11.663Z,97303.55
2019-05-03T03:38:16.015Z,97304.51
2019-05-03T03:39:19.230Z,97302.10
2019-05-03T03:40:25.594Z,97308.84
2019-05-03T03:41:28.727Z,97306.25
2019-05-03T03:42:31.595Z,97307.52
2019-05-03T03:43:35.513Z,97304.90
2019-05-03T03:44:41.451Z,97302.52
2019-05-03T03:45:45.477Z,97302.52
2019-05-03T03:46:48.435Z,97305.20
2019-05-03T03:47:51.574Z,97305.20
2019-05-03T03:48:55.846Z,97303.76
2019-05-03T03:49:58.938Z,97305.38
2019-05-03T03:51:01.846Z,97305.56
2019-05-03T03:52:06.187Z,97307.72
2019-05-03T03:53:09.249Z,97310.59
2019-05-03T03:54:15.537Z,97310.59
2019-05-03T03:55:18.180Z,97313.75
2019-05-03T03:56:21.562Z,97308.42
2019-05-03T03:57:25.255Z,97313.56
2019-05-03T04:00:05.670Z,97308.66
2019-05-03T04:01:08.445Z,97317.92
2019-05-03T04:02:11.470Z,97317.27
2019-05-03T04:03:15.734Z,97312.57
2019-05-03T04:04:18.732Z,97315.52
2019-05-03T04:05:21.705Z,97316.21
2019-05-03T04:06:35.822Z,97313.92
2019-05-03T04:07:38.933Z,97320.02
2019-05-03T04:08:41.884Z,97318.95
2019-05-03T04:09:45.693Z,97315.88
2019-05-03T04:10:48.780Z,97325.53
2019-05-03T04:11:51.627Z,97328.70
2019-05-03T04:12:59.850Z,97325.63
2019-05-03T04:14:05.245Z,97324.03
2019-05-03T04:15:28.692Z,97324.03
2019-05-03T04:16:42.178Z,97332.03
2019-05-03T04:18:16.383Z,97332.03
2019-05-03T04:19:25.196Z,97333.12
2019-05-03T04:20:30.302Z,97338.39
2019-05-03T04:21:35.908Z,97341.11
2019-05-03T04:22:40.009Z,97341.11
2019-05-03T04:23:42.997Z,97342.20
2019-05-03T04:24:47.124Z,97342.20
2019-05-03T04:25:50.575Z,97339.66
2019-05-03T04:27:15.543Z,97346.43
2019-05-03T04:28:10.106Z,97343.27
2019-05-03T04:29:15.845Z,97335.30
2019-05-03T04:30:17.775Z,97332.38
2019-05-03T04:31:20.649Z,97348.05
2019-05-03T04:32:28.151Z,97343.90
2019-05-03T04:33:28.321Z,97336.45
2019-05-03T04:34:31.530Z,97347.52
2019-05-03T04:35:36.449Z,97342.88
2019-05-03T04:36:38.838Z,97336.89
2019-05-03T04:37:41.635Z,97335.30
2019-05-03T04:38:45.506Z,97335.30
2019-05-03T04:39:48.399Z,97343.30
2019-05-03T04:40:51.638Z,97349.42
2019-05-03T04:41:55.948Z,97343.75
2019-05-03T04:43:00.709Z,97355.77
2019-05-03T04:44:06.059Z,97355.77
2019-05-03T04:45:08.383Z,97359.53
2019-05-03T04:46:20.756Z,97348.63
2019-05-03T04:47:26.053Z,97348.63
2019-05-03T04:48:28.031Z,97358.02
2019-05-03T04:49:30.869Z,97367.86
2019-05-03T04:50:36.374Z,97367.15
2019-05-03T04:51:38.430Z,97367.15
2019-05-03T04:52:41.259Z,97369.11
2019-05-03T04:53:47.502Z,97366.72
2019-05-03T04:55:00.358Z,97366.72
2019-05-03T04:56:05.519Z,97368.72
2019-05-03T04:57:07.564Z,97372.30
2019-05-03T04:58:10.745Z,97375.16
2019-05-03T04:59:15.988Z,97374.32
2019-05-03T05:00:20.925Z,97374.32
2019-05-03T05:01:26.310Z,97376.16
2019-05-03T05:02:29.082Z,97381.42
2019-05-03T05:03:31.927Z,97382.55
2019-05-03T05:04:35.745Z,97384.88
2019-05-03T05:05:38.867Z,97384.88
2019-05-03T05:06:41.673Z,97381.66
2019-05-03T05:07:45.682Z,97382.19
2019-05-03T05:08:48.819Z,97385.80
2019-05-03T05:09:51.682Z,97385.80
2019-05-03T05:10:57.769Z,97389.22
2019-05-03T05:12:00.915Z,97389.22
2019-05-03T05:13:06.260Z,97386.48
2019-05-03T05:14:10.685Z,97388.23
2019-05-03T05:15:15.638Z,97395.39
2019-05-03T05:16:20.761Z,97391.86
2019-05-03T05:17:36.562Z,97394.95
2019-05-03T05:18:46.415Z,97394.08
2019-05-03T05:19:57.882Z,97394.08
2019-05-03T05:21:07.628Z,97400.97
2019-05-03T05:22:11.256Z,97406.45
2019-05-03T05:23:14.778Z,97406.45
2019-05-03T05:24:18.111Z,97402.70
2019-05-03T05:25:25.133Z,97402.70
2019-05-03T05:26:32.000Z,97399.90
2019-05-03T05:27:57.229Z,97403.66
2019-05-03T05:29:02.954Z,97408.20
2019-05-03T05:43:48.605Z,97412.48
2019-05-03T05:44:51.428Z,97415.26
2019-05-03T05:45:55.652Z,97426.55
2019-05-03T05:47:25.286Z,97423.30
2019-05-03T05:48:32.547Z,97419.71
2019-05-03T05:49:54.519Z,97427.23
2019-05-03T05:50:56.890Z,97423.08
2019-05-03T05:51:59.627Z,97423.23
2019-05-03T05:53:06.582Z,97422.13
2019-05-03T05:54:09.640Z,97427.36
2019-05-03T05:55:38.115Z,97429.08
2019-05-03T05:56:51.617Z,97426.86
2019-05-03T05:58:05.130Z,97428.66
2019-05-03T05:59:27.226Z,97428.66
2019-05-03T06:00:55.174Z,97423.93
2019-05-03T06:01:59.914Z,97430.38
2019-05-03T06:03:06.239Z,97433.72
2019-05-03T06:04:10.105Z,97433.63
2019-05-03T06:05:14.730Z,97423.23
2019-05-03T06:06:24.485Z,97423.23
2019-05-03T06:07:41.846Z,97438.68
2019-05-03T06:09:12.468Z,97444.58
2019-05-03T06:10:29.828Z,97435.38
2019-05-03T06:11:38.433Z,97438.86
2019-05-03T06:12:52.265Z,97444.25
2019-05-03T06:13:59.540Z,97443.19
2019-05-03T06:15:07.360Z,97438.98
2019-05-03T06:16:15.513Z,97439.55
2019-05-03T06:17:28.771Z,97439.55
2019-05-03T06:18:37.588Z,97445.55
2019-05-03T06:19:57.776Z,97441.05
2019-05-03T06:21:14.848Z,97443.44
2019-05-03T06:22:29.980Z,97441.89
2019-05-03T06:23:37.565Z,97447.90
2019-05-03T06:24:45.280Z,97444.83
2019-05-03T06:25:48.125Z,97442.56
2019-05-03T06:26:58.058Z,97444.58
2019-05-03T06:28:14.696Z,97446.13
2019-05-03T06:29:07.030Z,97445.59
2019-05-03T06:30:29.038Z,97446.41
2019-05-03T06:31:55.029Z,97443.07
2019-05-03T06:32:59.249Z,97441.82
2019-05-03T06:34:01.975Z,97441.82
2019-05-03T06:35:06.888Z,97448.92
2019-05-03T06:36:09.757Z,97448.92
2019-05-03T06:37:15.692Z,97450.18
2019-05-03T06:38:18.336Z,97450.72
2019-05-03T06:39:20.987Z,97450.72
2019-05-03T06:40:26.149Z,97455.48
2019-05-03T06:41:31.223Z,97455.48
2019-05-03T06:42:35.542Z,97458.77
2019-05-03T06:43:39.606Z,97458.77
2019-05-03T06:44:45.356Z,97458.42
2019-05-03T06:45:50.477Z,97459.06
2019-05-03T06:46:55.241Z,97466.50
2019-05-03T06:48:00.155Z,97465.14
2019-05-03T06:49:06.603Z,97459.47
2019-05-03T06:50:07.282Z,97462.52
2019-05-03T06:51:12.575Z,97468.00
2019-05-03T06:52:19.731Z,97465.91
2019-05-03T06:53:21.084Z,97465.91
2019-05-03T06:54:26.629Z,97475.62
2019-05-03T06:55:28.169Z,97471.64
2019-05-03T06:56:36.240Z,97479.72
2019-05-03T06:57:45.526Z,97479.20
2019-05-03T06:58:47.612Z,97481.67
2019-05-03T07:00:02.384Z,97479.20
2019-05-03T07:01:25.403Z,97483.91
2019-05-03T07:02:54.521Z,97483.91
2019-05-03T07:04:01.545Z,97484.54
2019-05-03T07:05:05.183Z,97484.54
2019-05-03T07:06:40.438Z,97490.38
2019-05-03T07:07:49.060Z,97492.64
2019-05-03T07:08:56.560Z,97492.64
2019-05-03T07:10:24.946Z,97494.66
2019-05-03T07:11:28.290Z,97489.03
2019-05-03T07:12:50.187Z,97489.03
2019-05-03T07:13:55.897Z,97484.81
2019-05-03T07:16:35.874Z,97485.02
2019-05-03T07:17:39.200Z,97488.70
2019-05-03T07:18:49.291Z,97482.77
2019-05-03T07:19:54.687Z,97486.95
2019-05-03T07:20:58.612Z,97486.95
2019-05-03T07:22:01.410Z,97494.70
2019-05-03T07:23:04.656Z,97488.34
2019-05-03T07:24:07.475Z,97488.34
2019-05-03T07:25:10.125Z,97494.72
2019-05-03T07:26:15.577Z,97490.14
2019-05-03T07:27:21.670Z,97495.00
2019-05-03T07:28:25.654Z,97495.00
2019-05-03T07:29:32.631Z,97478.48
2019-05-03T07:30:37.074Z,97484.13
2019-05-03T07:31:44.639Z,97481.38
2019-05-03T07:32:56.058Z,97481.38
2019-05-03T07:33:55.769Z,97475.41
2019-05-03T07:34:59.450Z,97475.41
2019-05-03T07:36:02.313Z,97475.72
2019-05-03T07:37:10.006Z,97470.22
2019-05-03T07:38:16.628Z,97470.65
2019-05-03T07:39:24.542Z,97474.73
2019-05-03T07:40:27.623Z,97476.88
2019-05-03T07:41:35.704Z,97476.88
2019-05-03T07:42:39.162Z,97478.36
2019-05-03T07:43:47.998Z,97479.05
2019-05-03T07:44:51.503Z,97470.55
2019-05-03T07:45:55.252Z,97468.97
2019-05-03T07:47:01.217Z,97474.31
2019-05-03T07:48:06.388Z,97471.09
2019-05-03T07:49:09.403Z,97473.81
2019-05-03T07:50:15.295Z,97472.69
2019-05-03T07:51:24.861Z,97476.42
2019-05-03T07:52:30.564Z,97479.70
2019-05-03T07:53:36.279Z,97479.70
2019-05-03T07:54:40.305Z,97481.17
2019-05-03T07:56:16.613Z,97480.48
2019-05-03T07:57:40.386Z,97479.68
2019-05-03T07:58:58.637Z,97480.50
2019-05-03T07:59:52.519Z,97492.09
2019-05-03T08:01:06.317Z,97480.09
2019-05-03T08:02:09.838Z,97480.09
2019-05-03T08:03:15.490Z,97476.06
2019-05-03T08:04:18.632Z,97475.30
2019-05-03T08:05:24.675Z,97474.02
2019-05-03T08:07:55.251Z,97475.95
2019-05-03T08:08:59.311Z,97470.95
2019-05-03T08:10:05.495Z,97470.45
2019-05-03T08:11:09.624Z,97473.04
2019-05-03T08:12:12.440Z,97469.37
2019-05-03T08:13:25.310Z,97469.37
2019-05-03T08:14:31.585Z,97469.51
2019-05-03T08:15:37.437Z,97471.91
2019-05-03T08:16:41.112Z,97473.34
2019-05-03T08:17:48.248Z,97476.06
2019-05-03T08:18:51.083Z,97478.77
2019-05-03T08:19:55.207Z,97478.77
2019-05-03T08:20:58.778Z,97479.74
2019-05-03T08:22:01.818Z,97480.31
2019-05-03T08:23:05.314Z,97479.69
2019-05-03T08:24:08.235Z,97483.00
2019-05-03T08:25:11.352Z,97481.86
2019-05-03T08:26:21.219Z,97485.95
2019-05-03T08:27:29.507Z,97498.20
2019-05-03T08:28:35.084Z,97491.92
2019-05-03T08:29:37.979Z,97492.00
2019-05-03T08:31:15.158Z,97492.00
2019-05-03T08:32:44.437Z,97492.17
2019-05-03T08:34:04.852Z,97491.06
2019-05-03T08:35:25.359Z,97484.36
2019-05-03T08:36:41.038Z,97483.63
2019-05-03T08:37:54.689Z,97484.56
2019-05-03T08:39:00.810Z,97484.56
2019-05-03T08:40:05.228Z,97475.86
2019-05-03T08:41:10.341Z,97484.90
2019-05-03T08:42:18.314Z,97484.03
2019-05-03T08:43:27.769Z,97482.98
2019-05-03T08:44:30.616Z,97482.98
2019-05-03T08:45:35.808Z,97478.63
2019-05-03T08:46:38.839Z,97466.91
2019-05-03T08:47:41.650Z,97473.69
2019-05-03T08:48:45.591Z,97471.78
2019-05-03T08:49:49.904Z,97471.23
2019-05-03T08:50:55.480Z,97467.36
2019-05-03T08:52:00.274Z,97463.98
2019-05-03T08:53:05.050Z,97462.34
2019-05-03T08:54:07.978Z,97456.77
2019-05-03T08:55:15.860Z,97465.92
2019-05-03T08:56:18.677Z,97457.98
2019-05-03T08:57:21.539Z,97465.38
2019-05-03T08:58:31.055Z,97468.95
2019-05-03T08:59:32.515Z,97468.86
2019-05-03T09:00:35.700Z,97463.47
2019-05-03T09:01:39.488Z,97466.28
2019-05-03T09:02:44.954Z,97466.07
2019-05-03T09:03:48.412Z,97474.36
2019-05-03T09:04:51.646Z,97465.94
2019-05-03T09:05:56.457Z,97466.87
2019-05-03T09:06:59.322Z,97464.59
2019-05-03T09:08:02.412Z,97460.66
2019-05-03T09:09:07.825Z,97467.00
2019-05-03T09:10:24.858Z,97458.48
2019-05-03T09:11:34.096Z,97457.77
2019-05-03T09:12:52.116Z,97467.36
2019-05-03T09:14:06.433Z,97467.36
2019-05-03T09:15:09.497Z,97468.51
2019-05-03T09:16:14.496Z,97457.56
2019-05-03T09:17:17.168Z,97461.41
2019-05-03T09:18:20.449Z,97455.92
2019-05-03T09:19:25.226Z,97455.92
2019-05-03T09:20:28.136Z,97462.91
2019-05-03T09:21:34.733Z,97461.84
2019-05-03T09:22:38.024Z,97463.11
2019-05-03T09:23:41.423Z,97463.34
2019-05-03T09:24:47.222Z,97463.84
2019-05-03T09:25:51.289Z,97468.13
2019-05-03T09:26:56.519Z,97458.53
2019-05-03T09:27:59.747Z,97452.66
2019-05-03T09:29:03.142Z,97452.69
2019-05-03T09:30:09.166Z,97435.34
2019-05-03T09:31:12.050Z,97447.84
2019-05-03T09:32:15.014Z,97443.69
2019-05-03T09:33:17.949Z,97442.30
2019-05-03T09:34:20.840Z,97442.30
2019-05-03T09:35:35.342Z,97448.98
2019-05-03T09:36:39.698Z,97448.01
2019-05-03T09:37:42.400Z,97446.94
2019-05-03T09:38:45.915Z,97450.58
2019-05-03T09:39:50.106Z,97450.58
2019-05-03T09:40:54.664Z,97446.81
2019-05-03T09:41:58.879Z,97446.92
2019-05-03T09:43:04.475Z,97450.66
2019-05-03T09:44:09.035Z,97456.86
2019-05-03T09:45:15.429Z,97456.86
2019-05-03T09:46:18.122Z,97450.05
2019-05-03T09:47:25.261Z,97446.56
2019-05-03T09:48:28.426Z,97458.04
2019-05-03T09:49:34.884Z,97461.79
2019-05-03T09:50:39.431Z,97456.36
2019-05-03T09:51:44.336Z,97447.83
2019-05-03T09:52:50.064Z,97450.72
2019-05-03T09:53:58.198Z,97443.84
2019-05-03T09:55:05.267Z,97443.84
2019-05-03T09:56:07.379Z,97457.03
2019-05-03T09:57:10.042Z,97455.98
2019-05-03T09:58:12.736Z,97458.77
2019-05-03T09:59:15.715Z,97456.68
2019-05-03T10:00:19.228Z,97455.91
2019-05-03T10:01:22.006Z,97462.45
2019-05-03T10:02:26.395Z,97462.45
2019-05-03T10:03:29.218Z,97460.08
2019-05-03T10:04:36.608Z,97458.95
2019-05-03T10:05:42.548Z,97456.11
2019-05-03T10:06:45.811Z,97458.47
2019-05-03T10:07:48.692Z,97457.81
2019-05-03T10:08:51.977Z,97461.45
2019-05-03T10:09:55.364Z,97462.24
2019-05-03T10:11:15.493Z,97438.41
2019-05-03T10:12:27.531Z,97438.41
2019-05-03T10:13:32.338Z,97446.47
2019-05-03T10:14:35.639Z,97438.77
2019-05-03T10:15:41.011Z,97450.78
2019-05-03T10:16:51.364Z,97457.38
2019-05-03T10:17:59.502Z,97458.75
2019-05-03T10:19:02.304Z,97465.33
2019-05-03T10:20:09.255Z,97457.81
2019-05-03T10:21:20.316Z,97449.34
2019-05-03T10:22:25.148Z,97464.63
2019-05-03T10:23:42.238Z,97463.55
2019-05-03T10:24:45.367Z,97470.30
2019-05-03T10:25:48.315Z,97475.96
2019-05-03T10:26:51.183Z,97470.06
2019-05-03T10:27:57.443Z,97470.42
2019-05-03T10:29:11.942Z,97457.94
2019-05-03T10:42:48.588Z,97449.13
2019-05-03T10:43:55.745Z,97453.28
2019-05-03T10:44:59.399Z,97446.56
2019-05-03T10:46:04.966Z,97449.84
2019-05-03T10:47:07.399Z,97446.55
2019-05-03T10:48:11.732Z,97446.55
2019-05-03T10:49:15.423Z,97446.80
2019-05-03T10:50:18.282Z,97446.80
2019-05-03T10:51:21.686Z,97440.35
2019-05-03T10:52:28.397Z,97448.94
2019-05-03T10:53:42.619Z,97443.03
2019-05-03T10:54:48.861Z,97433.34
2019-05-03T10:56:09.252Z,97438.28
2019-05-03T10:57:16.804Z,97438.28
2019-05-03T10:58:20.580Z,97439.67
2019-05-03T10:59:24.894Z,97436.27
2019-05-03T11:00:44.982Z,97443.05
2019-05-03T11:01:49.650Z,97436.76
2019-05-03T11:02:58.983Z,97439.77
2019-05-03T11:04:01.851Z,97429.99
2019-05-03T11:05:06.865Z,97433.53
2019-05-03T11:06:09.695Z,97424.64
2019-05-03T11:07:14.758Z,97428.34
2019-05-03T11:08:21.958Z,97425.39
2019-05-03T11:09:47.572Z,97434.24
2019-05-03T11:10:37.730Z,97417.34
2019-05-03T11:11:45.528Z,97417.34
2019-05-03T11:12:47.306Z,97426.84
2019-05-03T11:13:51.990Z,97423.38
2019-05-03T11:14:54.983Z,97414.42
2019-05-03T11:15:58.331Z,97422.30
2019-05-03T11:17:01.384Z,97417.05
2019-05-03T11:18:07.284Z,97417.05
2019-05-03T11:19:15.858Z,97428.61
2019-05-03T11:20:29.078Z,97434.77
2019-05-03T11:21:31.000Z,97422.03
2019-05-03T11:22:34.564Z,97422.03
2019-05-03T11:23:37.362Z,97407.41
2019-05-03T11:24:40.989Z,97406.09
2019-05-03T11:25:45.261Z,97408.84
2019-05-03T11:26:50.699Z,97408.84
2019-05-03T11:27:56.435Z,97402.31
2019-05-03T11:29:01.017Z,97402.31
2019-05-03T11:30:09.433Z,97424.57
2019-05-03T11:31:29.594Z,97416.48
2019-05-03T11:32:50.281Z,97416.48
2019-05-03T11:33:55.319Z,97419.34
2019-05-03T11:35:25.729Z,97423.61
2019-05-03T11:36:42.294Z,97423.61
2019-05-03T11:37:51.634Z,97432.23
2019-05-03T11:38:55.969Z,97429.44
2019-05-03T11:39:59.320Z,97427.52
2019-05-03T11:41:04.914Z,97426.84
2019-05-03T11:42:06.643Z,97433.45
2019-05-03T11:43:09.593Z,97433.45
2019-05-03T11:44:30.371Z,97441.81
2019-05-03T11:45:35.171Z,97439.41
2019-05-03T11:46:37.675Z,97423.77
2019-05-03T11:47:42.364Z,97423.77
2019-05-03T11:48:45.562Z,97431.66
2019-05-03T11:49:48.815Z,97437.75
2019-05-03T11:50:54.525Z,97437.23
2019-05-03T11:51:56.831Z,97437.78
2019-05-03T11:53:00.474Z,97425.90
2019-05-03T11:54:06.423Z,97434.34
2019-05-03T11:55:11.714Z,97433.37
2019-05-03T11:56:14.840Z,97433.37
2019-05-03T11:57:26.296Z,97421.78
2019-05-03T11:58:29.047Z,97421.49
2019-05-03T11:59:37.054Z,97422.93
2019-05-03T12:00:41.381Z,97422.45
2019-05-03T12:02:04.758Z,97414.93
2019-05-03T12:03:18.074Z,97404.23
2019-05-03T12:04:18.842Z,97409.42
2019-05-03T12:05:29.081Z,97396.03
2019-05-03T12:06:36.782Z,97404.55
2019-05-03T12:07:40.181Z,97415.47
2019-05-03T12:08:47.693Z,97414.78
2019-05-03T12:09:51.307Z,97414.78
2019-05-03T12:10:58.619Z,97418.44
2019-05-03T12:12:01.431Z,97423.78
2019-05-03T12:13:12.325Z,97392.84
2019-05-03T12:14:17.603Z,97392.84
2019-05-03T12:15:22.249Z,97422.90
2019-05-03T12:16:54.720Z,97410.38
2019-05-03T12:17:31.711Z,97416.95
2019-05-03T12:18:48.878Z,97422.22
2019-05-03T12:19:41.501Z,97418.94
2019-05-03T12:20:49.078Z,97418.72
2019-05-03T12:21:53.095Z,97398.62
2019-05-03T12:22:58.565Z,97409.17
2019-05-03T12:24:06.376Z,97409.48
2019-05-03T12:25:10.233Z,97415.52
2019-05-03T12:26:16.468Z,97419.59
2019-05-03T12:27:35.677Z,97412.45
2019-05-03T12:28:38.561Z,97412.45
2019-05-03T12:29:44.763Z,97422.47
2019-05-03T12:30:48.003Z,97418.70
2019-05-03T12:31:50.890Z,97419.24
2019-05-03T12:32:54.702Z,97403.84
2019-05-03T12:34:00.077Z,97410.11
2019-05-03T12:35:03.015Z,97410.11
2019-05-03T12:36:05.789Z,97410.83
2019-05-03T12:37:08.659Z,97416.93
2019-05-03T12:38:11.460Z,97412.03
2019-05-03T12:39:24.297Z,97412.03
2019-05-03T12:40:19.135Z,97404.15
2019-05-03T12:41:25.409Z,97407.91
2019-05-03T12:42:26.881Z,97407.31
2019-05-03T12:43:30.072Z,97407.31
2019-05-03T12:44:37.512Z,97399.50
2019-05-03T12:45:40.887Z,97404.36
2019-05-03T12:46:45.017Z,97404.36
2019-05-03T12:47:47.968Z,97408.86
2019-05-03T12:48:50.764Z,97402.58
2019-05-03T12:49:55.752Z,97398.84
2019-05-03T12:50:58.519Z,97402.74
2019-05-03T12:52:02.281Z,97401.92
2019-05-03T12:53:05.174Z,97401.89
2019-05-03T12:54:07.999Z,97399.43
2019-05-03T12:55:10.837Z,97399.43
2019-05-03T12:56:22.770Z,97401.11
2019-05-03T12:57:21.197Z,97401.06
2019-05-03T12:58:45.770Z,97390.64
2019-05-03T13:00:11.432Z,97381.95
2019-05-03T13:01:40.762Z,97391.17
2019-05-03T13:02:41.166Z,97376.12
2019-05-03T13:04:01.062Z,97385.78
2019-05-03T13:05:04.833Z,97379.64
2019-05-03T13:06:08.258Z,97385.92
2019-05-03T13:07:22.375Z,97374.01
2019-05-03T13:08:26.473Z,97379.22
2019-05-03T13:09:29.299Z,97384.92
2019-05-03T13:10:34.644Z,97381.28
2019-05-03T13:11:51.767Z,97385.14
2019-05-03T13:12:52.492Z,97385.14
2019-05-03T13:13:49.776Z,97368.08
2019-05-03T13:14:52.726Z,97363.89
2019-05-03T13:15:55.612Z,97372.13
2019-05-03T13:17:01.897Z,97374.69
2019-05-03T13:18:05.229Z,97374.69
2019-05-03T13:19:11.394Z,97376.17
2019-05-03T13:20:16.975Z,97368.83
2019-05-03T13:21:25.091Z,97375.23
2019-05-03T13:22:27.342Z,97375.94
2019-05-03T13:23:35.012Z,97375.94
2019-05-03T13:24:37.351Z,97369.41
2019-05-03T13:25:40.184Z,97369.41
2019-05-03T13:26:42.983Z,97370.37
2019-05-03T13:27:46.379Z,97374.31
2019-05-03T13:28:55.171Z,97374.13
2019-05-03T13:29:58.350Z,97372.94